AirNav   Duncan Aviation - Near you to keep you 
flying
 
 730 users online  

61NC Southern Comforts Aerodrome
Parkton, North Carolina, USA

GOING TO PARKTON?


FAA INFORMATION EFFECTIVE 15 JULY 2021

Location

FAA Identifier: 61NC
Lat/Long: 34-52-16.5900N 078-57-56.1040W
34-52.276500N 078-57.935067W
34.8712750,-78.9655844
(estimated)
Elevation: 175 ft. / 53 m (estimated)
Variation: 07W (1985)
From city: 3 miles SE of PARKTON, NC
Time zone: UTC -4 (UTC -5 during Standard Time)
Zip code: 28371

Airport Operations

Airport use: Private use. Permission required prior to landing
Activation date: 06/1976
Control tower: no
ARTCC: WASHINGTON CENTER
FSS: RALEIGH FLIGHT SERVICE STATION
Attendance: DAYLIGHT HOURS
Wind indicator: yes
Segmented circle: no

Airport Communications

UNICOM: 122.8
WX ASOS at FAY (8 nm NE): 121.25 (910-484-1546)
WX ASOS at LBT (16 nm S): 134.775 (910-671-1906)

Nearby radio navigation aids

VOR radial/distance  VOR name  Freq  Var
FAYr217/8.2FAYETTEVILLE VOR/DME108.8004W
SDZr127/36.9SANDHILLS VORTAC111.8003W

 
NDB name  Hdg/Dist  Freq  Var  ID
ROBESON025/16.135908WRSY .-. ... -.--
FORT BRAGG212/17.739307WFGP ..-. --. .--.
POPE188/21.333807WPOB .--. --- -...
CLINTON267/30.341209WCTZ -.-. - --..
DILLON047/32.227409WDLC -.. .-.. -.-.
HARNETT211/36.641708WHQT .... --.- -
CAMP348/38.022707WCPC -.-. .--. -.-.

Airport Services

Fuel available: 100LL
Airframe service: MAJOR
Powerplant service: MAJOR

Runway Information

Runway 1/19

Dimensions: 4000 x 200 ft. / 1219 x 61 m
Surface: turf
RUNWAY 1  RUNWAY 19
Traffic pattern: leftleft
Obstructions: 30 ft. trees30 ft. trees

Airport Ownership and Management from official FAA records

Ownership: Privately-owned
Owner: WILLIAM K. JOHNSON/WALTER MC GILL
391 LITTLE MARSH RD
PARKTON, NC 28371
Phone 910-858-2206
MR. MC GILL RESIDES IN CALIFORNIA AND IS MR. JOHNSON'S UNCLE.
Manager: WILLIAM K. JOHNSON
391 LITTLE MARSH RD
PARKTON, NC 28371
Phone 910-858-2206

Airport Operational Statistics

Aircraft based on the field: 37
Single engine airplanes: 37
    

Additional Remarks

PUBLIC PROVIDED WITH REPAIR SERVICES.
FOR CD CTC WASHINGTON ARTCC AT 703-771-3587.

Instrument Procedures

There are no published instrument procedures at 61NC.

Some nearby airports with instrument procedures:

KFAY - Fayetteville Regional Airport/Grannis Field (8 nm NE)
5W4 - P K Airpark (14 nm NW)
KFBG - Simmons Army Airfield (16 nm N)
KLBT - Lumberton Regional Airport (16 nm S)
KPOB - Pope Army Airfield (18 nm N)
 
Loc | Ops | Rwys | IFR | FBO | Links
Com | Nav | Svcs | Stats | Notes
Area around 61NC (Southern Comforts Aerodrome)
 
Road maps at: MapQuest Bing Google
 
Aerial photo
No photo
 
Sectional chart

 
Airport distance calculator
Flying to Southern Comforts Aerodrome? Find the distance to fly.

From to 61NC

Sunrise and sunset
Times for 04-Aug-2021
 Local
(UTC-4)
 Zulu
(UTC)
Morning civil twilight06:0110:01
Sunrise06:2910:29
Sunset20:1500:15
Evening civil twilight20:4300:43

Current date and time
Zulu (UTC)  04-Aug-2021 04:13:12
Local (UTC-4)  04-Aug-2021 00:13:12
 
METAR
KFAY 
8nm NE 
040353Z 01009KT 6SM BR OVC006 21/19 A2998 RMK AO2 CIG 005V009 SLP146 T02060194
KFBG 
15nm N 
040337Z AUTO 02007KT 6SM -RA BR OVC010 20/19 A2998 RMK AO2 SLP154
KPOB 
18nm N 
040255Z 04008KT 7SM SCT007 OVC012 20/18 A2999 RMK AO2A SLPNO WND DATA ESTMD ALSTG ESTMD P0000 LAST
TAF
KFAY 
8nm NE 
032134Z 0322/0418 04008KT 6SM -SHRA BR OVC025 TEMPO 0322/0324 4SM -SHRA BR SCT007 OVC015 FM040400 02009KT P6SM VCSH OVC025 FM040900 01008KT P6SM OVC050
KFBG 
15nm N 
040200Z 0402/0507 04009KT 8000 -SHRA OVC005 QNH2997INS BECMG 0405/0406 04006KT 4800 BR BKN006 OVC020 QNH2996INS BECMG 0410/0411 01009KT 8000 -SHRA OVC007 QNH2998INS BECMG 0413/0414 02012G20KT 9999 NSW BKN018 BKN035 QNH2998INS BECMG 0500/0501 02009KT 9999 BKN045 QNH2999INS TX27/0421Z TN20/0411Z
KLBT 
17nm S 
031720Z 0318/0418 04009KT 5SM -SHRA BR VCSH OVC016 FM032200 05009KT 5SM SHRA BR VCTS OVC009CB FM040000 05009KT 6SM SHRA BR OVC007 FM040600 04008KT P6SM OVC007 FM041100 02008KT P6SM BKN007 AMD NOT SKED
KPOB 
18nm N 
040100Z 0401/0507 04010G15KT 9000 -RA BR FEW007 BKN010 OVC025 QNH2992INS BECMG 0404/0405 04010G15KT 9999 VCSH BKN007 OVC012 QNH2992INS BECMG 0414/0415 03012G20KT 9999 NSW SCT010 BKN015 OVC030 QNH2999INS BECMG 0417/0418 03010G15KT 9999 SCT020 BKN030 OVC050 QNH2996INS BECMG 0421/0422 05006KT 9999 FEW030 BKN050 QNH2997INS TX26/0420Z TN19/0410Z LAST NO AMDS AFT 0403 NEXT 0417
NOTAMs
Click for the latest NOTAMs
NOTAMs are issued by the DoD/FAA and will open in a separate window not controlled by AirNav.

 

 
 

Would you like to see your business listed on this page?

 If your business provides an interesting product or service to pilots, flight crews, aircraft, or users of the Southern Comforts Aerodrome, you should consider listing it here.  To start the listing process, click on the button below
 
Add a business
 

Other Pages about Southern Comforts Aerodrome

users.aol.com/...
 
Update a link
 
Copyright © AirNav, LLC. All rights reserved. Privacy Policy  Contact